Time;durP1;ratioP1;P1;durP2;ratioP2;P2;SDS_P1;SDS_P2;PMS_P1;PMS_P2;Temp;Humidity;BMP_temperature;BMP_pressure;BME280_temperature;BME280_humidity;BME280_pressure;Samples;Min_cycle;Max_cycle;Signal;HPM_P1;HPM_P2
2021/04/06 00:01:17;;;;;;;3.00;0.70;;;;;;;;;;5056587;28;20090;-82
2021/04/06 00:03:43;;;;;;;0.95;0.45;;;;;;;;;;5056590;28;20105;-82
2021/04/06 00:06:09;;;;;;;3.38;0.50;;;;;;;;;;5056430;28;20032;-83
2021/04/06 00:08:35;;;;;;;0.93;0.40;;;;;;;;;;5040128;28;20040;-82
2021/04/06 00:11:02;;;;;;;3.58;0.75;;;;;;;;;;5056334;28;20032;-83
2021/04/06 00:13:29;;;;;;;3.90;0.50;;;;;;;;;;5055295;28;20033;-83
2021/04/06 00:15:55;;;;;;;5.25;0.70;;;;;;;;;;5056533;28;20486;-83
2021/04/06 00:18:21;;;;;;;2.13;0.50;;;;;;;;;;5056304;28;20132;-83
2021/04/06 00:20:49;;;;;;;1.60;0.80;;;;;;;;;;5056316;28;20472;-83
2021/04/06 00:23:15;;;;;;;1.52;0.40;;;;;;;;;;5056276;28;20037;-83
2021/04/06 00:25:43;;;;;;;2.00;0.50;;;;;;;;;;5039414;28;20143;-83
2021/04/06 00:28:10;;;;;;;2.60;0.60;;;;;;;;;;5056125;28;20098;-83
2021/04/06 00:30:36;;;;;;;4.72;0.47;;;;;;;;;;5056073;28;20048;-83
2021/04/06 00:33:04;;;;;;;2.95;0.55;;;;;;;;;;5056044;28;20032;-83
2021/04/06 00:35:32;;;;;;;1.98;0.50;;;;;;;;;;5022892;28;20082;-83
2021/04/06 00:37:58;;;;;;;3.33;0.43;;;;;;;;;;5056302;28;20033;-83
2021/04/06 00:40:26;;;;;;;3.67;0.50;;;;;;;;;;5055773;28;20040;-83
2021/04/06 00:43:01;;;;;;;2.70;0.50;;;;;;;;;;5039147;28;20096;-83
2021/04/06 00:45:27;;;;;;;2.42;0.70;;;;;;;;;;5055996;28;20079;-82
2021/04/06 00:48:00;;;;;;;4.90;1.15;;;;;;;;;;5073185;28;20074;-83
2021/04/06 00:50:30;;;;;;;4.43;0.50;;;;;;;;;;5055901;28;20086;-84
2021/04/06 00:52:56;;;;;;;2.17;0.60;;;;;;;;;;5073408;28;20329;-83
2021/04/06 00:55:22;;;;;;;3.03;0.60;;;;;;;;;;5038947;28;20174;-83
2021/04/06 00:57:48;;;;;;;3.92;0.90;;;;;;;;;;5038957;28;20488;-83
2021/04/06 01:00:22;;;;;;;4.55;0.90;;;;;;;;;;5038792;28;20052;-83
2021/04/06 01:02:59;;;;;;;2.47;0.70;;;;;;;;;;5055449;28;20032;-83
2021/04/06 01:05:25;;;;;;;5.82;0.88;;;;;;;;;;5055396;28;20036;-83
2021/04/06 01:07:52;;;;;;;5.07;0.70;;;;;;;;;;5055383;28;20038;-82
2021/04/06 01:10:18;;;;;;;2.42;0.75;;;;;;;;;;5055168;28;20044;-83
2021/04/06 01:12:44;;;;;;;7.45;1.00;;;;;;;;;;5055355;28;20120;-83
2021/04/06 01:15:11;;;;;;;6.95;1.25;;;;;;;;;;5055158;28;20115;-82
2021/04/06 01:17:37;;;;;;;7.45;1.10;;;;;;;;;;5055074;28;20377;-83
2021/04/06 01:20:08;;;;;;;5.57;1.10;;;;;;;;;;5055155;28;20041;-83
2021/04/06 01:22:34;;;;;;;10.52;1.58;;;;;;;;;;5055293;28;20090;-82
2021/04/06 01:25:00;;;;;;;5.55;1.13;;;;;;;;;;5038273;28;20036;-83
2021/04/06 01:27:26;;;;;;;4.72;1.15;;;;;;;;;;5038393;28;20047;-82
2021/04/06 01:29:54;;;;;;;7.55;1.35;;;;;;;;;;5038328;28;20044;-82
2021/04/06 01:32:20;;;;;;;5.85;0.98;;;;;;;;;;5072471;28;20036;-82
2021/04/06 01:34:47;;;;;;;3.05;0.80;;;;;;;;;;5054781;28;20036;-82
2021/04/06 01:37:13;;;;;;;4.18;0.95;;;;;;;;;;5054844;28;20047;-82
2021/04/06 01:39:39;;;;;;;4.07;1.05;;;;;;;;;;5038024;28;20040;-83
2021/04/06 01:42:05;;;;;;;9.20;1.50;;;;;;;;;;5038225;28;20051;-83
2021/04/06 01:44:34;;;;;;;8.13;1.30;;;;;;;;;;5054852;28;20089;-82
2021/04/06 01:47:00;;;;;;;12.88;1.48;;;;;;;;;;5038252;28;20036;-82
2021/04/06 01:49:26;;;;;;;6.75;1.45;;;;;;;;;;5054493;28;20641;-82
2021/04/06 01:51:58;;;;;;;9.80;1.23;;;;;;;;;;5054574;28;20484;-83
2021/04/06 01:54:25;;;;;;;14.13;1.50;;;;;;;;;;5072265;28;20029;-82
2021/04/06 01:56:59;;;;;;;7.63;1.42;;;;;;;;;;5054745;28;20043;-82
2021/04/06 01:59:33;;;;;;;12.15;1.65;;;;;;;;;;5055415;28;20036;-81
2021/04/06 02:02:01;;;;;;;6.20;1.20;;;;;;;;;;5038813;28;20075;-81
2021/04/06 02:04:28;;;;;;;12.80;1.90;;;;;;;;;;5037910;28;20033;-83
2021/04/06 02:06:55;;;;;;;9.40;1.30;;;;;;;;;;5037952;28;20064;-81
2021/04/06 02:09:21;;;;;;;6.13;1.08;;;;;;;;;;5072096;28;20041;-81
2021/04/06 02:11:47;;;;;;;6.20;1.00;;;;;;;;;;5037612;28;20047;-82
2021/04/06 02:14:17;;;;;;;6.38;1.30;;;;;;;;;;5037780;28;20041;-82
2021/04/06 02:16:52;;;;;;;9.48;1.45;;;;;;;;;;5072008;28;20067;-81
2021/04/06 02:19:22;;;;;;;9.75;1.65;;;;;;;;;;5072066;28;20047;-83
2021/04/06 02:21:48;;;;;;;9.32;1.98;;;;;;;;;;5054160;28;20068;-81
2021/04/06 02:24:25;;;;;;;12.35;2.00;;;;;;;;;;5054500;28;20040;-82
2021/04/06 02:26:57;;;;;;;9.73;1.55;;;;;;;;;;5071981;28;20083;-82
2021/04/06 02:29:23;;;;;;;6.43;1.35;;;;;;;;;;5071984;28;20115;-82
2021/04/06 02:31:49;;;;;;;9.50;2.47;;;;;;;;;;5054170;28;20488;-82
2021/04/06 02:34:15;;;;;;;9.18;1.48;;;;;;;;;;5037464;28;20037;-81
2021/04/06 02:36:45;;;;;;;7.55;1.30;;;;;;;;;;5056247;28;20080;-82
2021/04/06 02:39:11;;;;;;;8.10;1.52;;;;;;;;;;5076142;28;20032;-81
2021/04/06 02:41:37;;;;;;;9.43;1.30;;;;;;;;;;5058207;28;20123;-81
2021/04/06 02:44:04;;;;;;;10.80;1.40;;;;;;;;;;5058026;28;20033;-81
2021/04/06 02:46:30;;;;;;;10.77;1.80;;;;;;;;;;5058075;28;20040;-81
2021/04/06 02:48:56;;;;;;;8.02;1.25;;;;;;;;;;5057835;28;20091;-81
2021/04/06 02:51:22;;;;;;;11.00;1.83;;;;;;;;;;5041140;28;20045;-80
2021/04/06 02:53:49;;;;;;;12.35;1.70;;;;;;;;;;5057924;28;20154;-81
2021/04/06 02:56:34;;;;;;;6.70;1.23;;;;;;;;;;5057800;28;20043;-81
2021/04/06 02:59:16;;;;;;;7.60;1.50;;;;;;;;;;5057832;28;20457;-80
2021/04/06 03:01:42;;;;;;;8.52;1.70;;;;;;;;;;5075294;28;20102;-83
2021/04/06 03:04:18;;;;;;;10.07;2.28;;;;;;;;;;5075530;28;20063;-82
2021/04/06 03:06:44;;;;;;;13.65;1.60;;;;;;;;;;5075372;28;20033;-82
2021/04/06 03:09:13;;;;;;;11.52;1.23;;;;;;;;;;5075444;28;20056;-82
2021/04/06 03:11:44;;;;;;;11.23;1.95;;;;;;;;;;5075451;28;20085;-82
2021/04/06 03:14:10;;;;;;;13.23;2.10;;;;;;;;;;5075329;28;20208;-81
2021/04/06 03:16:37;;;;;;;11.40;1.45;;;;;;;;;;5057603;28;20476;-81
2021/04/06 03:19:03;;;;;;;10.75;2.08;;;;;;;;;;5057494;28;20395;-82
2021/04/06 03:21:29;;;;;;;8.00;2.08;;;;;;;;;;5075064;28;20075;-81
2021/04/06 03:23:55;;;;;;;9.63;1.70;;;;;;;;;;5057353;28;20074;-84
2021/04/06 03:26:23;;;;;;;13.80;2.30;;;;;;;;;;5057502;28;20098;-84
2021/04/06 03:28:49;;;;;;;8.85;1.63;;;;;;;;;;5057148;28;20095;-82
2021/04/06 03:31:19;;;;;;;10.93;2.63;;;;;;;;;;5057262;28;20430;-82
2021/04/06 03:33:48;;;;;;;14.93;2.42;;;;;;;;;;5057271;28;20044;-83
2021/04/06 03:36:21;;;;;;;14.80;3.03;;;;;;;;;;5057138;28;20079;-82
2021/04/06 03:38:47;;;;;;;14.77;1.88;;;;;;;;;;5074918;28;20089;-82
2021/04/06 03:41:13;;;;;;;12.32;1.98;;;;;;;;;;5056911;28;20094;-83
2021/04/06 03:43:40;;;;;;;12.57;1.90;;;;;;;;;;5040292;28;20473;-83
2021/04/06 03:46:06;;;;;;;10.95;1.70;;;;;;;;;;5056853;28;20502;-81
2021/04/06 03:48:35;;;;;;;13.05;1.70;;;;;;;;;;5052996;28;20133;-81
2021/04/06 03:51:02;;;;;;;11.23;2.38;;;;;;;;;;5036953;28;20067;-81
2021/04/06 03:53:37;;;;;;;14.25;2.40;;;;;;;;;;5053364;28;20041;-81
2021/04/06 03:56:04;;;;;;;10.02;1.52;;;;;;;;;;5054247;28;20120;-81
2021/04/06 03:58:35;;;;;;;11.55;2.08;;;;;;;;;;5053291;28;20033;-82
2021/04/06 04:01:01;;;;;;;17.55;2.22;;;;;;;;;;5053268;28;20063;-81
2021/04/06 04:03:27;;;;;;;13.77;1.60;;;;;;;;;;5054287;28;20488;-81
2021/04/06 04:05:53;;;;;;;11.98;1.83;;;;;;;;;;5054241;28;20037;-81
2021/04/06 04:08:19;;;;;;;10.80;1.80;;;;;;;;;;5053073;28;20120;-82
2021/04/06 04:10:45;;;;;;;12.70;1.60;;;;;;;;;;5052967;28;20514;-82
2021/04/06 04:13:11;;;;;;;8.82;1.40;;;;;;;;;;5053126;28;20499;-82
2021/04/06 04:15:37;;;;;;;7.68;1.80;;;;;;;;;;5054031;28;20124;-82
2021/04/06 04:18:03;;;;;;;10.00;1.90;;;;;;;;;;5052867;28;20124;-82
2021/04/06 04:20:30;;;;;;;7.75;1.45;;;;;;;;;;5052813;28;20043;-82
2021/04/06 04:22:56;;;;;;;8.60;1.35;;;;;;;;;;5053844;28;20048;-82
2021/04/06 04:25:22;;;;;;;8.27;1.60;;;;;;;;;;5052556;28;20029;-81
2021/04/06 04:27:48;;;;;;;10.23;1.58;;;;;;;;;;5052753;28;20044;-82
2021/04/06 04:30:15;;;;;;;13.00;1.55;;;;;;;;;;5053981;28;20098;-82
2021/04/06 04:32:41;;;;;;;6.95;1.13;;;;;;;;;;5036554;28;20209;-81
2021/04/06 04:35:07;;;;;;;10.93;1.85;;;;;;;;;;5052510;28;20041;-81
2021/04/06 04:37:34;;;;;;;10.45;1.50;;;;;;;;;;5052459;28;20086;-81
2021/04/06 04:40:00;;;;;;;9.57;1.92;;;;;;;;;;5052376;28;20041;-82
2021/04/06 04:42:26;;;;;;;12.73;1.88;;;;;;;;;;5052415;28;20037;-82
2021/04/06 04:44:52;;;;;;;9.88;2.45;;;;;;;;;;5053548;28;20442;-81
2021/04/06 04:47:18;;;;;;;13.80;1.77;;;;;;;;;;5052344;28;20041;-82
2021/04/06 04:49:44;;;;;;;11.25;2.13;;;;;;;;;;5072264;28;20044;-81
2021/04/06 04:52:10;;;;;;;8.70;1.75;;;;;;;;;;5073255;28;20037;-81
2021/04/06 04:54:36;;;;;;;12.75;2.15;;;;;;;;;;5073235;28;20036;-81
2021/04/06 04:57:02;;;;;;;5.57;1.48;;;;;;;;;;5073307;28;20041;-83
2021/04/06 04:59:28;;;;;;;7.78;2.53;;;;;;;;;;5038071;28;20040;-82
2021/04/06 05:01:54;;;;;;;13.27;1.65;;;;;;;;;;5073210;28;20502;-83
2021/04/06 05:04:20;;;;;;;10.88;1.40;;;;;;;;;;5055317;28;20036;-82
2021/04/06 05:06:46;;;;;;;9.18;1.48;;;;;;;;;;5055395;28;20075;-83
2021/04/06 05:09:12;;;;;;;6.68;1.63;;;;;;;;;;5055409;28;20111;-83
2021/04/06 05:11:38;;;;;;;9.10;1.83;;;;;;;;;;5055112;28;20535;-82
2021/04/06 05:14:06;;;;;;;11.10;2.45;;;;;;;;;;5055184;28;20111;-81
2021/04/06 05:16:32;;;;;;;9.68;1.80;;;;;;;;;;5055108;28;20037;-86
2021/04/06 05:18:58;;;;;;;13.95;1.50;;;;;;;;;;5072957;28;20120;-86
2021/04/06 05:21:24;;;;;;;10.73;2.03;;;;;;;;;;5054996;28;20111;-88
2021/04/06 05:23:50;;;;;;;6.72;1.20;;;;;;;;;;5072879;28;20544;-80
2021/04/06 05:26:16;;;;;;;9.95;1.95;;;;;;;;;;5072762;28;20040;-82
2021/04/06 05:28:43;;;;;;;10.90;1.50;;;;;;;;;;5072549;28;20044;-82
2021/04/06 05:31:09;;;;;;;10.63;1.33;;;;;;;;;;5072841;28;20036;-81
2021/04/06 05:33:35;;;;;;;13.15;1.23;;;;;;;;;;5083810;28;20152;-84
2021/04/06 05:36:01;;;;;;;5.95;1.10;;;;;;;;;;5069685;28;20044;-82
2021/04/06 05:38:27;;;;;;;9.18;1.42;;;;;;;;;;5091657;28;20032;-82
2021/04/06 05:40:53;;;;;;;6.25;1.17;;;;;;;;;;5089110;28;20081;-80
2021/04/06 05:43:19;;;;;;;7.80;1.50;;;;;;;;;;5087075;28;20067;-81
2021/04/06 05:45:46;;;;;;;5.88;1.70;;;;;;;;;;5092428;28;20036;-81
2021/04/06 05:48:14;;;;;;;5.80;1.17;;;;;;;;;;5070239;28;20513;-81
2021/04/06 05:50:43;;;;;;;8.00;1.08;;;;;;;;;;5054045;28;20124;-82
2021/04/06 05:53:09;;;;;;;2.83;0.80;;;;;;;;;;5070878;28;20032;-81
2021/04/06 05:55:35;;;;;;;5.22;1.15;;;;;;;;;;5054121;28;20048;-82
2021/04/06 05:58:01;;;;;;;2.83;0.93;;;;;;;;;;5070877;28;20044;-82
2021/04/06 06:00:27;;;;;;;4.43;0.80;;;;;;;;;;5071661;28;20476;-82
2021/04/06 06:02:53;;;;;;;6.18;1.05;;;;;;;;;;5070712;28;20193;-82
2021/04/06 06:05:19;;;;;;;8.13;2.35;;;;;;;;;;5070881;28;20041;-81
2021/04/06 06:07:45;;;;;;;6.55;0.95;;;;;;;;;;5086829;28;20395;-82
2021/04/06 06:10:27;;;;;;;6.80;1.60;;;;;;;;;;5091941;28;20069;-83
2021/04/06 06:12:54;;;;;;;6.70;1.05;;;;;;;;;;5092074;28;20227;-81
2021/04/06 06:15:20;;;;;;;3.63;1.02;;;;;;;;;;5090881;28;20043;-81
2021/04/06 06:18:01;;;;;;;9.05;1.20;;;;;;;;;;5091981;28;20036;-84
2021/04/06 06:20:27;;;;;;;11.07;1.33;;;;;;;;;;5090721;28;20092;-83
2021/04/06 06:22:53;;;;;;;7.57;1.17;;;;;;;;;;5090789;28;20068;-83
2021/04/06 06:25:20;;;;;;;7.20;1.20;;;;;;;;;;5090820;28;20047;-89
2021/04/06 06:27:47;;;;;;;5.25;1.10;;;;;;;;;;5073848;28;20047;-83
2021/04/06 06:30:37;;;;;;;3.95;1.10;;;;;;;;;;5091779;28;20445;-82
2021/04/06 06:33:23;;;;;;;4.53;0.88;;;;;;;;;;5090759;28;20039;-82
2021/04/06 06:35:56;;;;;;;5.53;0.82;;;;;;;;;;5057444;28;20498;-83
2021/04/06 06:38:22;;;;;;;7.05;1.38;;;;;;;;;;5090586;28;20039;-83
2021/04/06 06:40:49;;;;;;;6.28;1.20;;;;;;;;;;5091488;28;20051;-84
2021/04/06 06:43:16;;;;;;;4.03;0.80;;;;;;;;;;5090574;28;20059;-84
2021/04/06 06:45:42;;;;;;;6.10;1.00;;;;;;;;;;5090373;28;20036;-84
2021/04/06 06:48:08;;;;;;;9.40;1.20;;;;;;;;;;5091467;28;20080;-84
2021/04/06 06:50:50;;;;;;;4.43;1.00;;;;;;;;;;5073595;28;20432;-84
2021/04/06 06:53:30;;;;;;;4.38;0.85;;;;;;;;;;5073550;28;20043;-84
2021/04/06 06:55:56;;;;;;;4.00;1.00;;;;;;;;;;5090566;28;20554;-84
2021/04/06 06:58:29;;;;;;;6.63;1.20;;;;;;;;;;5073593;28;20474;-85
2021/04/06 07:00:55;;;;;;;8.95;1.88;;;;;;;;;;5090278;28;20036;-83
2021/04/06 07:03:21;;;;;;;8.05;1.48;;;;;;;;;;5090314;28;20426;-85
2021/04/06 07:05:47;;;;;;;5.90;1.33;;;;;;;;;;5073611;28;20043;-86
2021/04/06 07:08:13;;;;;;;4.90;1.10;;;;;;;;;;5090388;28;20459;-84
2021/04/06 07:10:40;;;;;;;2.22;0.70;;;;;;;;;;5091496;28;20044;-87
2021/04/06 07:13:06;;;;;;;3.40;0.70;;;;;;;;;;5073311;28;20044;-89
2021/04/06 07:15:32;;;;;;;2.80;0.68;;;;;;;;;;5073306;28;20109;-87
2021/04/06 07:18:03;;;;;;;2.25;0.90;;;;;;;;;;5090224;28;20437;-87
2021/04/06 07:20:29;;;;;;;4.78;1.05;;;;;;;;;;5090145;28;20040;-86
2021/04/06 07:22:55;;;;;;;2.88;0.90;;;;;;;;;;5092638;28;20036;-87
2021/04/06 07:25:22;;;;;;;4.40;1.10;;;;;;;;;;5095003;28;20063;-87
2021/04/06 07:27:48;;;;;;;2.53;0.80;;;;;;;;;;5093897;28;20040;-88
2021/04/06 07:30:15;;;;;;;5.85;1.15;;;;;;;;;;5077061;28;20066;-84
2021/04/06 07:32:42;;;;;;;4.22;0.85;;;;;;;;;;5076648;28;20078;-87
2021/04/06 07:35:11;;;;;;;3.22;1.23;;;;;;;;;;5060110;28;20074;-90
2021/04/06 07:37:41;;;;;;;4.72;0.80;;;;;;;;;;5093783;28;20038;-86
2021/04/06 07:40:10;;;;;;;1.75;0.80;;;;;;;;;;5093781;28;20041;-86
2021/04/06 07:42:37;;;;;;;3.28;0.82;;;;;;;;;;5076698;28;20067;-84
2021/04/06 07:45:05;;;;;;;5.68;1.05;;;;;;;;;;5093315;28;20506;-85
2021/04/06 07:47:38;;;;;;;2.60;0.88;;;;;;;;;;5093277;28;20059;-83
2021/04/06 07:50:06;;;;;;;2.22;0.80;;;;;;;;;;5094569;28;20036;-85
2021/04/06 07:52:32;;;;;;;5.88;1.08;;;;;;;;;;5094558;28;20072;-87
2021/04/06 07:54:58;;;;;;;3.95;0.82;;;;;;;;;;5076412;28;20044;-86
2021/04/06 07:57:41;;;;;;;7.28;1.27;;;;;;;;;;5093286;28;20111;-86
2021/04/06 08:00:07;;;;;;;3.33;1.00;;;;;;;;;;5094393;28;20115;-86
2021/04/06 08:02:34;;;;;;;4.70;1.00;;;;;;;;;;5090662;28;20028;-82
2021/04/06 08:05:00;;;;;;;3.60;1.00;;;;;;;;;;5092798;28;20036;-84
2021/04/06 08:07:27;;;;;;;3.85;0.85;;;;;;;;;;5091292;28;20039;-83
2021/04/06 08:09:54;;;;;;;4.00;0.70;;;;;;;;;;5076397;28;20055;-82
2021/04/06 08:12:23;;;;;;;4.35;0.90;;;;;;;;;;5076052;28;20040;-83
2021/04/06 08:14:53;;;;;;;1.15;0.80;;;;;;;;;;5075933;28;20510;-83
2021/04/06 08:17:25;;;;;;;1.58;0.63;;;;;;;;;;5092939;28;20105;-84
2021/04/06 08:19:52;;;;;;;1.00;0.70;;;;;;;;;;5076114;28;20040;-84
2021/04/06 08:22:22;;;;;;;3.80;0.90;;;;;;;;;;5092798;28;20075;-85
2021/04/06 08:24:48;;;;;;;1.65;0.68;;;;;;;;;;5092482;28;20048;-84
2021/04/06 08:27:33;;;;;;;2.60;0.90;;;;;;;;;;5092721;28;20039;-83
2021/04/06 08:30:27;;;;;;;4.38;0.88;;;;;;;;;;5092709;28;20043;-84
2021/04/06 08:32:59;;;;;;;2.83;1.25;;;;;;;;;;5093451;28;20047;-84
2021/04/06 08:35:52;;;;;;;4.60;0.90;;;;;;;;;;5093469;28;20430;-84
2021/04/06 08:38:18;;;;;;;2.85;0.90;;;;;;;;;;5093797;28;20043;-84
2021/04/06 08:40:45;;;;;;;3.75;0.77;;;;;;;;;;5075560;28;20034;-85
2021/04/06 08:43:11;;;;;;;2.38;0.80;;;;;;;;;;5093582;28;20097;-85
2021/04/06 08:45:37;;;;;;;2.25;0.73;;;;;;;;;;5075230;28;20126;-85
2021/04/06 08:48:03;;;;;;;4.90;0.90;;;;;;;;;;5091594;28;20123;-83
2021/04/06 08:50:33;;;;;;;2.60;0.80;;;;;;;;;;5092375;28;20036;-82
2021/04/06 08:53:00;;;;;;;3.67;1.20;;;;;;;;;;5092201;28;20068;-82
2021/04/06 08:55:26;;;;;;;4.95;0.98;;;;;;;;;;5075425;28;20384;-82
2021/04/06 08:57:58;;;;;;;3.03;0.73;;;;;;;;;;5092087;28;20552;-81
2021/04/06 09:00:24;;;;;;;;;;;;;;;;;;5093763;28;20047;-81
2021/04/06 09:03:00;;;;;;;5.65;0.93;;;;;;;;;;5093230;28;19920;-84
2021/04/06 09:05:29;;;;;;;2.65;0.60;;;;;;;;;;5093207;28;20036;-85
2021/04/06 09:07:55;;;;;;;3.10;0.75;;;;;;;;;;5093328;28;20111;-84
2021/04/06 09:10:22;;;;;;;4.25;0.70;;;;;;;;;;5091910;28;20063;-81
2021/04/06 09:12:50;;;;;;;4.97;0.80;;;;;;;;;;5091722;28;20043;-83
2021/04/06 09:15:16;;;;;;;2.15;0.70;;;;;;;;;;5074919;28;20034;-84
2021/04/06 09:17:42;;;;;;;3.42;0.77;;;;;;;;;;5091604;28;20035;-84
2021/04/06 09:20:12;;;;;;;2.20;0.80;;;;;;;;;;5074755;28;20380;-84
2021/04/06 09:22:39;;;;;;;2.35;0.80;;;;;;;;;;5074807;28;20044;-83
2021/04/06 09:25:14;;;;;;;4.00;1.00;;;;;;;;;;5091353;28;20036;-82
2021/04/06 09:28:07;;;;;;;3.92;1.10;;;;;;;;;;5074655;28;20063;-82
2021/04/06 09:30:35;;;;;;;3.55;1.45;;;;;;;;;;5090156;28;20052;-82
2021/04/06 09:33:03;;;;;;;3.58;1.20;;;;;;;;;;5091602;28;20048;-82
2021/04/06 09:35:29;;;;;;;4.18;1.00;;;;;;;;;;5092537;28;20036;-83
2021/04/06 09:37:55;;;;;;;3.42;0.93;;;;;;;;;;5091443;28;20036;-84
2021/04/06 09:40:28;;;;;;;2.88;0.85;;;;;;;;;;5074120;28;20471;-84
2021/04/06 09:42:54;;;;;;;4.03;1.05;;;;;;;;;;5091401;28;20032;-85
2021/04/06 09:45:20;;;;;;;4.43;0.95;;;;;;;;;;5074135;28;20046;-84
2021/04/06 09:47:46;;;;;;;3.30;0.90;;;;;;;;;;5092195;28;20036;-84
2021/04/06 09:50:12;;;;;;;3.08;0.75;;;;;;;;;;5087417;28;20040;-84
2021/04/06 09:52:38;;;;;;;3.97;0.90;;;;;;;;;;5072558;28;20045;-84
2021/04/06 09:55:08;;;;;;;8.32;1.13;;;;;;;;;;5091173;28;20077;-83
2021/04/06 09:57:44;;;;;;;3.58;1.02;;;;;;;;;;5074191;28;20028;-83
2021/04/06 10:00:12;;;;;;;2.63;1.00;;;;;;;;;;5091027;28;20356;-81
2021/04/06 10:02:39;;;;;;;4.03;0.75;;;;;;;;;;5092133;28;20094;-80
2021/04/06 10:05:05;;;;;;;3.80;0.88;;;;;;;;;;5092125;28;20032;-81
2021/04/06 10:07:34;;;;;;;3.47;0.82;;;;;;;;;;5074096;28;20085;-82
2021/04/06 10:10:01;;;;;;;3.30;1.25;;;;;;;;;;5091518;28;20129;-82
2021/04/06 10:12:28;;;;;;;4.18;1.13;;;;;;;;;;5090606;28;20048;-81
2021/04/06 10:14:54;;;;;;;5.88;0.93;;;;;;;;;;5091872;28;20467;-82
2021/04/06 10:17:21;;;;;;;5.13;1.35;;;;;;;;;;5091855;28;20040;-81
2021/04/06 10:19:56;;;;;;;5.65;1.30;;;;;;;;;;5090593;28;20475;-81
2021/04/06 10:22:24;;;;;;;6.57;1.60;;;;;;;;;;5073947;28;20044;-81
2021/04/06 10:24:57;;;;;;;7.15;1.30;;;;;;;;;;5073587;28;20111;-81
2021/04/06 10:27:27;;;;;;;7.95;1.38;;;;;;;;;;5091972;28;20046;-81
2021/04/06 10:29:58;;;;;;;4.18;0.90;;;;;;;;;;5090749;28;20051;-79
2021/04/06 10:32:30;;;;;;;6.85;1.33;;;;;;;;;;5073848;28;20071;-80
2021/04/06 10:34:57;;;;;;;;;;;;;;;;;;5092421;28;20090;-81
2021/04/06 10:37:23;;;;;;;4.88;0.90;;;;;;;;;;5091832;28;19916;-82
2021/04/06 10:39:50;;;;;;;2.20;0.85;;;;;;;;;;5073762;28;20161;-81
2021/04/06 10:42:16;;;;;;;2.92;1.23;;;;;;;;;;5073578;28;20098;-82
2021/04/06 10:44:43;;;;;;;5.53;1.15;;;;;;;;;;5073571;28;20032;-82
2021/04/06 10:47:09;;;;;;;5.22;1.33;;;;;;;;;;5091679;28;20040;-82
2021/04/06 10:49:35;;;;;;;6.50;1.42;;;;;;;;;;5073272;28;20036;-82
2021/04/06 10:52:01;;;;;;;6.63;1.33;;;;;;;;;;5091598;28;20407;-83
2021/04/06 10:54:28;;;;;;;5.55;1.20;;;;;;;;;;5073101;28;20056;-83
2021/04/06 10:56:58;;;;;;;4.15;1.40;;;;;;;;;;5091243;28;20040;-82
2021/04/06 10:59:30;;;;;;;6.32;1.27;;;;;;;;;;5077410;28;20039;-81
2021/04/06 11:01:56;;;;;;;7.53;1.38;;;;;;;;;;5094328;28;20525;-82
2021/04/06 11:04:25;;;;;;;7.65;1.42;;;;;;;;;;5094237;28;20036;-82
2021/04/06 11:06:56;;;;;;;4.82;1.35;;;;;;;;;;5095445;28;20036;-82
2021/04/06 11:09:26;;;;;;;5.65;1.25;;;;;;;;;;5095304;28;20040;-82
2021/04/06 11:11:54;;;;;;;5.13;1.20;;;;;;;;;;5095561;28;20598;-82
2021/04/06 11:14:20;;;;;;;4.03;1.25;;;;;;;;;;5094033;28;20112;-82
2021/04/06 11:16:46;;;;;;;6.32;0.85;;;;;;;;;;5095279;28;20032;-81
2021/04/06 11:19:16;;;;;;;5.65;1.00;;;;;;;;;;5094081;28;20117;-81
2021/04/06 11:21:43;;;;;;;7.30;1.38;;;;;;;;;;5093798;28;20036;-83
2021/04/06 11:24:09;;;;;;;3.67;1.10;;;;;;;;;;5093830;28;20490;-82
2021/04/06 11:26:36;;;;;;;5.57;1.08;;;;;;;;;;5095078;28;20534;-82
2021/04/06 11:29:02;;;;;;;4.50;1.20;;;;;;;;;;5094040;28;20093;-84
2021/04/06 11:31:28;;;;;;;5.15;1.00;;;;;;;;;;5095002;28;20044;-82
2021/04/06 11:33:54;;;;;;;5.82;1.25;;;;;;;;;;5076494;28;20044;-81
2021/04/06 11:36:21;;;;;;;5.00;0.90;;;;;;;;;;5094632;28;20043;-81
2021/04/06 11:38:47;;;;;;;8.00;1.13;;;;;;;;;;5093728;28;20537;-82
2021/04/06 11:41:13;;;;;;;4.07;1.10;;;;;;;;;;5076648;28;20398;-82
2021/04/06 11:43:39;;;;;;;7.43;1.40;;;;;;;;;;5076679;28;20040;-82
2021/04/06 11:46:06;;;;;;;8.35;1.25;;;;;;;;;;5093603;28;20032;-82
2021/04/06 11:48:32;;;;;;;5.07;1.30;;;;;;;;;;5076453;28;20058;-82
2021/04/06 11:50:58;;;;;;;7.43;1.20;;;;;;;;;;5076533;28;20048;-82
2021/04/06 11:53:24;;;;;;;8.65;1.35;;;;;;;;;;5076613;28;20100;-82
2021/04/06 11:55:50;;;;;;;5.68;1.30;;;;;;;;;;5093358;28;20063;-83
2021/04/06 11:58:16;;;;;;;7.03;1.27;;;;;;;;;;5094442;28;20036;-81
2021/04/06 12:00:42;;;;;;;10.30;1.23;;;;;;;;;;5093426;28;20122;-81
2021/04/06 12:03:08;;;;;;;8.82;1.10;;;;;;;;;;5094396;28;20063;-82
2021/04/06 12:05:34;;;;;;;7.65;1.30;;;;;;;;;;5093281;28;20064;-80
2021/04/06 12:08:00;;;;;;;5.40;1.27;;;;;;;;;;5094323;28;20040;-83
2021/04/06 12:10:26;;;;;;;7.63;1.10;;;;;;;;;;5076310;28;20101;-82
2021/04/06 12:12:52;;;;;;;7.72;1.60;;;;;;;;;;5094404;28;20525;-82
2021/04/06 12:15:19;;;;;;;8.88;1.45;;;;;;;;;;5094323;28;20280;-82
2021/04/06 12:17:46;;;;;;;6.97;1.52;;;;;;;;;;5094496;28;20039;-81
2021/04/06 12:20:13;;;;;;;9.15;1.40;;;;;;;;;;5076499;28;20067;-83
2021/04/06 12:22:42;;;;;;;5.90;1.15;;;;;;;;;;5093507;28;20047;-83
2021/04/06 12:25:08;;;;;;;6.47;1.20;;;;;;;;;;5093158;28;20114;-82
2021/04/06 12:27:34;;;;;;;7.28;1.52;;;;;;;;;;5094246;28;20484;-83
2021/04/06 12:30:00;;;;;;;3.65;1.48;;;;;;;;;;5092763;28;20425;-82
2021/04/06 12:32:26;;;;;;;5.75;1.55;;;;;;;;;;5075303;28;20072;-82
2021/04/06 12:34:53;;;;;;;7.78;1.20;;;;;;;;;;5075637;28;20032;-82
2021/04/06 12:37:20;;;;;;;2.33;0.90;;;;;;;;;;5076122;28;20111;-82
2021/04/06 12:39:50;;;;;;;4.05;1.02;;;;;;;;;;5093581;28;20113;-83
2021/04/06 12:42:16;;;;;;;3.05;0.73;;;;;;;;;;5093594;28;20093;-82
2021/04/06 12:44:42;;;;;;;5.35;1.10;;;;;;;;;;5075245;28;20155;-81
2021/04/06 12:47:08;;;;;;;5.18;1.00;;;;;;;;;;5092404;28;20479;-82
2021/04/06 12:49:34;;;;;;;4.80;1.17;;;;;;;;;;5075160;28;20058;-82
2021/04/06 12:52:00;;;;;;;7.97;1.10;;;;;;;;;;5092270;28;20075;-82
2021/04/06 12:54:26;;;;;;;4.55;0.90;;;;;;;;;;5091750;28;20043;-81
2021/04/06 12:56:52;;;;;;;9.82;1.88;;;;;;;;;;5091893;28;20036;-80
2021/04/06 12:59:19;;;;;;;3.97;1.10;;;;;;;;;;5074556;28;20075;-80
2021/04/06 13:01:45;;;;;;;4.10;1.15;;;;;;;;;;5093351;28;20036;-81
2021/04/06 13:04:11;;;;;;;9.70;1.35;;;;;;;;;;5075564;28;20052;-81
2021/04/06 13:06:37;;;;;;;5.82;1.17;;;;;;;;;;5075521;28;20032;-80
2021/04/06 13:09:04;;;;;;;9.93;1.73;;;;;;;;;;5075399;28;20036;-80
2021/04/06 13:11:30;;;;;;;7.72;2.25;;;;;;;;;;5075246;28;20346;-80
2021/04/06 13:13:56;;;;;;;10.18;2.30;;;;;;;;;;5092057;28;20040;-81
2021/04/06 13:16:22;;;;;;;7.32;1.35;;;;;;;;;;5093125;28;20043;-81
2021/04/06 13:18:48;;;;;;;10.85;1.95;;;;;;;;;;5075269;28;20044;-80
2021/04/06 13:21:15;;;;;;;8.05;1.85;;;;;;;;;;5091440;28;20221;-80
2021/04/06 13:23:41;;;;;;;5.38;1.10;;;;;;;;;;5093066;28;20040;-79
2021/04/06 13:26:07;;;;;;;10.45;1.95;;;;;;;;;;5093185;28;20047;-81
2021/04/06 13:28:33;;;;;;;5.93;1.33;;;;;;;;;;5093054;28;20557;-80
2021/04/06 13:31:00;;;;;;;5.90;1.10;;;;;;;;;;5092790;28;20064;-81
2021/04/06 13:33:26;;;;;;;3.40;1.10;;;;;;;;;;5092874;28;20036;-80
2021/04/06 13:35:52;;;;;;;8.48;1.23;;;;;;;;;;5091637;28;20545;-82
2021/04/06 13:38:19;;;;;;;5.07;1.27;;;;;;;;;;5091732;28;20075;-82
2021/04/06 13:40:45;;;;;;;7.15;1.25;;;;;;;;;;5091424;28;20036;-83
2021/04/06 13:43:11;;;;;;;6.63;1.50;;;;;;;;;;5092887;28;20047;-83
2021/04/06 13:45:37;;;;;;;7.45;1.48;;;;;;;;;;5092500;28;20032;-82
2021/04/06 13:48:04;;;;;;;13.32;1.83;;;;;;;;;;5092423;28;20055;-83
2021/04/06 13:50:30;;;;;;;5.63;1.38;;;;;;;;;;5070200;28;20040;-83
2021/04/06 13:52:56;;;;;;;5.70;1.35;;;;;;;;;;5090863;28;20475;-82
2021/04/06 13:55:22;;;;;;;6.20;1.50;;;;;;;;;;5090787;28;20036;-83
2021/04/06 13:57:48;;;;;;;8.55;1.17;;;;;;;;;;5073770;28;20059;-80
2021/04/06 14:00:15;;;;;;;12.32;1.95;;;;;;;;;;5091781;28;20479;-80
2021/04/06 14:02:41;;;;;;;10.75;1.45;;;;;;;;;;5074573;28;20070;-81
2021/04/06 14:05:08;;;;;;;5.80;1.10;;;;;;;;;;5093423;28;20072;-82
2021/04/06 14:07:34;;;;;;;5.68;1.20;;;;;;;;;;5073890;28;20036;-81
2021/04/06 14:10:00;;;;;;;8.05;1.00;;;;;;;;;;5073544;28;20044;-82
2021/04/06 14:12:26;;;;;;;4.70;1.10;;;;;;;;;;5073638;28;20460;-83
2021/04/06 14:14:52;;;;;;;4.25;1.20;;;;;;;;;;5090847;28;20040;-83
2021/04/06 14:17:18;;;;;;;6.00;1.08;;;;;;;;;;5090096;28;20039;-83
2021/04/06 14:19:44;;;;;;;7.05;1.83;;;;;;;;;;5056635;28;20074;-82
2021/04/06 14:22:10;;;;;;;7.75;1.40;;;;;;;;;;5091942;28;20040;-82
2021/04/06 14:24:36;;;;;;;10.52;1.60;;;;;;;;;;5090611;28;20404;-82
2021/04/06 14:27:02;;;;;;;8.27;1.67;;;;;;;;;;5090596;28;20040;-82
2021/04/06 14:29:28;;;;;;;6.20;1.33;;;;;;;;;;5091821;28;20032;-82
2021/04/06 14:31:54;;;;;;;5.93;1.30;;;;;;;;;;5091601;28;20471;-82
2021/04/06 14:34:20;;;;;;;6.22;1.27;;;;;;;;;;5094785;28;20107;-82
2021/04/06 14:36:46;;;;;;;8.10;1.52;;;;;;;;;;5096019;28;20032;-82
2021/04/06 14:39:13;;;;;;;5.38;1.27;;;;;;;;;;5078109;28;20040;-83
2021/04/06 14:41:40;;;;;;;8.35;1.50;;;;;;;;;;5096153;28;20040;-83
2021/04/06 14:44:06;;;;;;;7.70;1.30;;;;;;;;;;5094472;28;20044;-86